Time;durP1;ratioP1;P1;durP2;ratioP2;P2;SDS_P1;SDS_P2;PMS_P1;PMS_P2;Temp;Humidity;BMP_temperature;BMP_pressure;BME280_temperature;BME280_humidity;BME280_pressure;Samples;Min_cycle;Max_cycle;Signal;HPM_P1;HPM_P2
2022/05/28 00:00:11;;;;;;;1.40;1.20;;;26.50;57.80;;;;;;5095130;28;20444;-79
2022/05/28 00:02:38;;;;;;;1.80;1.20;;;26.50;57.70;;;;;;5094808;28;20842;-80
2022/05/28 00:05:06;;;;;;;1.97;1.10;;;26.50;57.80;;;;;;5094561;28;20444;-79
2022/05/28 00:07:34;;;;;;;2.00;1.07;;;26.50;57.80;;;;;;5094436;28;20494;-79
2022/05/28 00:10:00;;;;;;;1.67;1.10;;;26.50;57.70;;;;;;5094969;28;20440;-80
2022/05/28 00:12:30;;;;;;;1.77;1.50;;;26.50;57.70;;;;;;5094924;28;20440;-80
2022/05/28 00:14:58;;;;;;;2.20;1.50;;;26.50;57.60;;;;;;5094632;28;20444;-80
2022/05/28 00:17:25;;;;;;;1.30;1.20;;;26.50;57.70;;;;;;5094475;28;20446;-79
2022/05/28 00:19:52;;;;;;;1.40;1.30;;;26.50;57.90;;;;;;5094838;28;20444;-80
2022/05/28 00:22:19;;;;;;;1.80;1.07;;;26.50;58.20;;;;;;5094788;28;20478;-88
2022/05/28 00:24:46;;;;;;;1.60;1.03;;;26.50;58.00;;;;;;5094342;28;20443;-80
2022/05/28 00:27:13;;;;;;;1.60;1.10;;;26.50;58.10;;;;;;5094511;28;20484;-80
2022/05/28 00:29:41;;;;;;;1.30;1.17;;;26.50;58.10;;;;;;5094302;28;20942;-79
2022/05/28 00:32:09;;;;;;;2.90;1.20;;;26.50;58.10;;;;;;5094393;28;20448;-79
2022/05/28 00:34:36;;;;;;;1.60;1.10;;;26.50;57.90;;;;;;5094378;28;20443;-79
2022/05/28 00:37:04;;;;;;;1.40;1.00;;;26.50;57.90;;;;;;5093606;28;20443;-80
2022/05/28 00:39:31;;;;;;;2.50;1.10;;;26.50;58.00;;;;;;5093111;28;20444;-79
2022/05/28 00:41:58;;;;;;;1.60;1.40;;;26.50;58.10;;;;;;5093549;28;20519;-79
2022/05/28 00:44:25;;;;;;;1.77;1.23;;;26.50;58.10;;;;;;5094051;28;20436;-80
2022/05/28 00:46:56;;;;;;;1.87;1.33;;;26.50;58.20;;;;;;5093971;28;20482;-79
2022/05/28 00:49:27;;;;;;;1.70;1.20;;;26.50;58.10;;;;;;5094326;28;20458;-84
2022/05/28 00:51:59;;;;;;;1.87;1.40;;;26.40;57.90;;;;;;5094500;28;20464;-80
2022/05/28 00:54:30;;;;;;;1.50;1.10;;;26.40;58.20;;;;;;5094230;28;20527;-80
2022/05/28 00:56:57;;;;;;;1.30;1.00;;;26.40;58.20;;;;;;5094007;28;20809;-80
2022/05/28 00:59:24;;;;;;;6.13;1.00;;;26.40;58.30;;;;;;5093742;28;20444;-79
2022/05/28 01:01:56;;;;;;;1.57;1.10;;;26.40;58.20;;;;;;5093714;28;20474;-79
2022/05/28 01:04:32;;;;;;;2.10;1.20;;;26.40;58.30;;;;;;5093924;28;20462;-80
2022/05/28 01:07:04;;;;;;;1.33;1.23;;;26.40;58.30;;;;;;5093328;28;20474;-80
2022/05/28 01:09:37;;;;;;;1.40;1.20;;;26.40;58.40;;;;;;5093884;28;20443;-80
2022/05/28 01:12:13;;;;;;;1.30;1.00;;;26.40;58.50;;;;;;5093698;28;20451;-80
2022/05/28 01:14:48;;;;;;;1.53;1.13;;;26.40;58.20;;;;;;5093474;28;20431;-79
2022/05/28 01:17:22;;;;;;;1.53;1.23;;;26.40;58.20;;;;;;5093979;28;20508;-80
2022/05/28 01:19:57;;;;;;;1.20;1.10;;;26.40;58.10;;;;;;5093693;28;20436;-79
2022/05/28 01:22:35;;;;;;;1.73;1.37;;;26.40;58.20;;;;;;5093543;28;20444;-80
2022/05/28 01:25:12;;;;;;;1.27;1.00;;;26.40;58.30;;;;;;5093743;28;20777;-79
2022/05/28 01:27:46;;;;;;;1.70;1.10;;;26.40;58.30;;;;;;5093215;28;21073;-79
2022/05/28 01:30:14;;;;;;;1.93;1.23;;;26.40;58.30;;;;;;5093126;28;20527;-80
2022/05/28 01:32:43;;;;;;;1.43;1.00;;;26.30;58.30;;;;;;5093069;28;20969;-79
2022/05/28 01:35:15;;;;;;;1.83;1.50;;;26.30;58.30;;;;;;5093517;28;20440;-79
2022/05/28 01:37:44;;;;;;;1.63;1.10;;;26.30;58.30;;;;;;5093449;28;20958;-79
2022/05/28 01:40:12;;;;;;;1.73;1.30;;;26.30;58.20;;;;;;5093517;28;20436;-79
2022/05/28 01:42:45;;;;;;;1.57;1.17;;;26.30;58.20;;;;;;5093047;28;20444;-78
2022/05/28 01:45:14;;;;;;;1.73;1.20;;;26.30;58.30;;;;;;5092813;28;20443;-79
2022/05/28 01:47:43;;;;;;;1.60;1.00;;;26.30;58.20;;;;;;5093546;28;20823;-80
2022/05/28 01:50:13;;;;;;;1.90;1.17;;;26.30;58.20;;;;;;5093259;28;20516;-79
2022/05/28 01:52:41;;;;;;;2.13;1.20;;;26.30;58.10;;;;;;5093620;28;20793;-79
2022/05/28 01:55:11;;;;;;;1.23;1.07;;;26.30;58.20;;;;;;5093205;28;20439;-79
2022/05/28 01:57:39;;;;;;;1.53;1.33;;;26.30;58.30;;;;;;5093293;28;20461;-80
2022/05/28 02:00:09;;;;;;;1.40;1.10;;;26.30;58.30;;;;;;5092840;28;20436;-79
2022/05/28 02:02:37;;;;;;;1.50;1.30;;;26.30;58.20;;;;;;5092879;28;20487;-80
2022/05/28 02:05:05;;;;;;;1.37;1.20;;;26.30;58.20;;;;;;5093189;28;20439;-80
2022/05/28 02:07:32;;;;;;;1.30;1.10;;;26.30;58.10;;;;;;5092599;28;20484;-80
2022/05/28 02:10:01;;;;;;;1.10;0.83;;;26.30;58.20;;;;;;5092614;28;20447;-80
2022/05/28 02:12:31;;;;;;;1.30;1.00;;;26.30;58.20;;;;;;5093033;28;20439;-80
2022/05/28 02:15:17;;;;;;;1.40;1.07;;;26.30;58.10;;;;;;5092622;28;20447;-80
2022/05/28 02:17:50;;;;;;;1.60;1.13;;;26.30;58.70;;;;;;5094192;28;20440;-87
2022/05/28 02:20:24;;;;;;;2.50;1.63;;;26.30;58.10;;;;;;5096808;28;20440;-80
2022/05/28 02:22:56;;;;;;;1.97;1.13;;;26.30;58.10;;;;;;5096861;28;20435;-80
2022/05/28 02:25:29;;;;;;;2.23;1.20;;;26.30;58.10;;;;;;5076659;28;20436;-80
2022/05/28 02:27:58;;;;;;;2.23;1.27;;;26.30;58.20;;;;;;5076598;28;20480;-80
2022/05/28 02:30:27;;;;;;;1.30;1.20;;;26.30;58.10;;;;;;5076677;28;20441;-80
2022/05/28 02:33:00;;;;;;;2.13;1.67;;;26.30;58.00;;;;;;5076600;28;20443;-79
2022/05/28 02:35:27;;;;;;;1.40;1.10;;;26.30;58.00;;;;;;5075358;28;20506;-80
2022/05/28 02:37:54;;;;;;;1.67;1.53;;;26.30;58.10;;;;;;5076416;28;20460;-79
2022/05/28 02:40:20;;;;;;;1.43;1.20;;;26.30;58.10;;;;;;5076491;28;20443;-80
2022/05/28 02:42:47;;;;;;;1.50;1.07;;;26.30;58.00;;;;;;5094345;28;20446;-80
2022/05/28 02:45:14;;;;;;;1.70;1.00;;;26.30;58.00;;;;;;5096829;28;20761;-80
2022/05/28 02:47:44;;;;;;;1.40;1.17;;;26.30;58.00;;;;;;5096453;28;21002;-80
2022/05/28 02:50:11;;;;;;;1.13;1.03;;;26.30;58.00;;;;;;5096455;28;20935;-80
2022/05/28 02:52:38;;;;;;;1.30;1.17;;;26.30;58.00;;;;;;5096289;28;20447;-79
2022/05/28 02:55:06;;;;;;;1.97;1.30;;;26.30;58.10;;;;;;5096398;28;20926;-80
2022/05/28 02:57:33;;;;;;;1.20;0.90;;;26.30;58.00;;;;;;5096818;28;20933;-79
2022/05/28 02:59:59;;;;;;;2.23;1.20;;;26.30;58.00;;;;;;5096288;28;20458;-79
2022/05/28 03:02:28;;;;;;;1.87;1.10;;;26.30;58.00;;;;;;5095629;28;20475;-80
2022/05/28 03:04:57;;;;;;;1.60;1.17;;;26.30;57.90;;;;;;5095500;28;20436;-80
2022/05/28 03:07:23;;;;;;;1.97;1.30;;;26.30;57.90;;;;;;5095972;28;20484;-80
2022/05/28 03:09:50;;;;;;;3.73;1.23;;;26.30;58.00;;;;;;5095779;28;20436;-80
2022/05/28 03:12:17;;;;;;;1.80;1.10;;;26.30;58.00;;;;;;5096065;28;20513;-79
2022/05/28 03:14:44;;;;;;;1.30;0.80;;;26.30;58.00;;;;;;5094972;28;20440;-87
2022/05/28 03:17:11;;;;;;;2.10;1.40;;;26.30;58.00;;;;;;5096013;28;20976;-80
2022/05/28 03:19:38;;;;;;;1.53;1.10;;;26.30;58.00;;;;;;5096109;28;20537;-80
2022/05/28 03:22:06;;;;;;;1.40;1.20;;;26.30;58.00;;;;;;5095882;28;20436;-80
2022/05/28 03:24:33;;;;;;;1.20;0.90;;;26.30;58.00;;;;;;5095923;28;20444;-79
2022/05/28 03:27:00;;;;;;;1.73;1.27;;;26.30;58.00;;;;;;5095838;28;20509;-88
2022/05/28 03:29:27;;;;;;;1.47;1.10;;;26.30;58.00;;;;;;5095054;28;20483;-80
2022/05/28 03:31:54;;;;;;;1.37;1.00;;;26.30;57.90;;;;;;5095873;28;20440;-82
2022/05/28 03:34:21;;;;;;;1.43;1.03;;;26.40;58.10;;;;;;5096014;28;20444;-81
2022/05/28 03:36:48;;;;;;;1.40;1.17;;;26.30;58.00;;;;;;5094472;28;20435;-80
2022/05/28 03:39:16;;;;;;;1.60;1.10;;;26.30;58.00;;;;;;5095542;28;20468;-80
2022/05/28 03:41:43;;;;;;;1.60;1.40;;;26.30;58.00;;;;;;5095093;28;20442;-80
2022/05/28 03:44:11;;;;;;;1.10;0.90;;;26.20;58.10;;;;;;5095442;28;20931;-80
2022/05/28 03:46:39;;;;;;;1.10;0.97;;;26.30;58.00;;;;;;5095637;28;20441;-80
2022/05/28 03:49:08;;;;;;;1.70;1.40;;;26.20;58.00;;;;;;5095344;28;20897;-80
2022/05/28 03:51:35;;;;;;;1.20;1.10;;;26.20;57.90;;;;;;5095505;28;20448;-79
2022/05/28 03:54:03;;;;;;;1.90;1.40;;;26.20;58.00;;;;;;5095072;28;20444;-79
2022/05/28 03:56:36;;;;;;;2.03;0.80;;;26.20;58.00;;;;;;5094878;28;20437;-79
2022/05/28 03:59:04;;;;;;;1.20;0.90;;;26.20;57.90;;;;;;5095030;28;20440;-80
2022/05/28 04:01:31;;;;;;;1.20;1.10;;;26.20;58.00;;;;;;5094929;28;20482;-80
2022/05/28 04:03:57;;;;;;;1.40;1.20;;;26.20;57.90;;;;;;5095030;28;20443;-84
2022/05/28 04:06:24;;;;;;;1.40;1.00;;;26.20;57.90;;;;;;5094813;28;20446;-79
2022/05/28 04:08:51;;;;;;;1.60;1.10;;;26.20;58.00;;;;;;5094781;28;20494;-79
2022/05/28 04:11:18;;;;;;;1.87;1.20;;;26.20;58.00;;;;;;5094935;28;20436;-79
2022/05/28 04:13:47;;;;;;;1.10;0.93;;;26.20;58.00;;;;;;5095004;28;20527;-80
2022/05/28 04:16:14;;;;;;;1.30;1.10;;;26.20;57.90;;;;;;5094839;28;20443;-80
2022/05/28 04:18:41;;;;;;;1.40;1.03;;;26.20;57.90;;;;;;5094950;28;20796;-79
2022/05/28 04:21:08;;;;;;;1.20;1.00;;;26.20;58.00;;;;;;5094941;28;20428;-80
2022/05/28 04:23:35;;;;;;;1.97;1.20;;;26.20;58.00;;;;;;5094541;28;20443;-80
2022/05/28 04:26:02;;;;;;;1.57;1.00;;;26.20;58.00;;;;;;5094468;28;20534;-80
2022/05/28 04:28:29;;;;;;;1.30;1.07;;;26.20;58.00;;;;;;5094616;28;20488;-79
2022/05/28 04:30:57;;;;;;;1.73;1.00;;;26.20;58.00;;;;;;5094677;28;20431;-79
2022/05/28 04:33:24;;;;;;;1.50;1.10;;;26.20;58.00;;;;;;5094516;28;20439;-80
2022/05/28 04:35:51;;;;;;;1.63;1.10;;;26.20;58.00;;;;;;5094442;28;20783;-80
2022/05/28 04:38:18;;;;;;;3.00;1.17;;;26.20;57.90;;;;;;5094263;28;20544;-79
2022/05/28 04:40:45;;;;;;;1.20;1.10;;;26.20;58.00;;;;;;5093524;28;20522;-80
2022/05/28 04:43:12;;;;;;;1.93;1.00;;;26.20;58.60;;;;;;5093864;28;20454;-79
2022/05/28 04:45:39;;;;;;;1.83;1.10;;;26.20;58.00;;;;;;5094472;28;20435;-79
2022/05/28 04:48:07;;;;;;;1.10;0.90;;;26.20;57.90;;;;;;5093945;28;20510;-79
2022/05/28 04:50:34;;;;;;;1.50;1.20;;;26.20;58.00;;;;;;5094219;28;20440;-80
2022/05/28 04:53:01;;;;;;;1.73;1.37;;;26.20;58.00;;;;;;5094110;28;20428;-80
2022/05/28 04:55:28;;;;;;;1.83;1.30;;;26.20;58.00;;;;;;5094250;28;20523;-79
2022/05/28 04:57:54;;;;;;;1.80;1.33;;;26.20;58.10;;;;;;5093997;28;20440;-80
2022/05/28 05:00:24;;;;;;;1.20;1.10;;;26.20;58.00;;;;;;5093524;28;20774;-79
2022/05/28 05:02:51;;;;;;;1.30;1.10;;;26.20;58.00;;;;;;5093213;28;20464;-79
2022/05/28 05:05:20;;;;;;;1.30;1.10;;;26.20;58.00;;;;;;5093456;28;20440;-79
2022/05/28 05:07:47;;;;;;;1.20;1.00;;;26.20;58.10;;;;;;5092797;28;20980;-79
2022/05/28 05:10:13;;;;;;;1.20;0.90;;;26.20;58.10;;;;;;5092921;28;20436;-79
2022/05/28 05:12:40;;;;;;;1.10;0.80;;;26.20;58.10;;;;;;5092754;28;20435;-79
2022/05/28 05:15:08;;;;;;;1.40;1.00;;;26.20;58.10;;;;;;5091789;28;20439;-81
2022/05/28 05:17:38;;;;;;;1.30;0.87;;;26.20;58.10;;;;;;5093456;28;20447;-83
2022/05/28 05:20:06;;;;;;;2.60;1.20;;;26.20;58.10;;;;;;5093006;28;20515;-93
2022/05/28 05:22:34;;;;;;;1.23;0.97;;;26.20;58.10;;;;;;5093211;28;20440;-80
2022/05/28 05:25:00;;;;;;;3.07;1.17;;;26.20;58.20;;;;;;5093201;28;20442;-79
2022/05/28 05:27:27;;;;;;;5.67;1.83;;;26.10;57.00;;;;;;5093385;28;20443;-80
2022/05/28 05:29:57;;;;;;;2.40;1.40;;;26.00;56.30;;;;;;5093857;28;20487;-80
2022/05/28 05:32:24;;;;;;;2.50;1.13;;;26.00;56.50;;;;;;5093647;28;20447;-80
2022/05/28 05:34:51;;;;;;;3.10;1.20;;;26.00;57.10;;;;;;5093266;28;20436;-79
2022/05/28 05:37:18;;;;;;;3.33;1.20;;;26.00;57.50;;;;;;5093519;28;20459;-79
2022/05/28 05:39:46;;;;;;;1.97;1.20;;;26.00;57.80;;;;;;5093075;28;20451;-79
2022/05/28 05:42:13;;;;;;;2.17;1.00;;;26.00;57.80;;;;;;5086320;28;20493;-78
2022/05/28 05:44:40;;;;;;;1.90;0.93;;;26.00;57.90;;;;;;5093502;28;20447;-79
2022/05/28 05:47:08;;;;;;;2.20;1.43;;;26.00;57.90;;;;;;5093482;28;20461;-78
2022/05/28 05:49:35;;;;;;;4.63;1.97;;;26.00;57.60;;;;;;5092133;28;20486;-79
2022/05/28 05:52:04;;;;;;;3.10;1.70;;;25.70;56.00;;;;;;5096175;28;20432;-78
2022/05/28 05:54:30;;;;;;;4.67;1.63;;;25.60;56.00;;;;;;5099872;28;20526;-78
2022/05/28 05:56:59;;;;;;;2.83;1.60;;;25.50;56.40;;;;;;5099681;28;20444;-81
2022/05/28 05:59:26;;;;;;;6.50;1.73;;;25.40;55.70;;;;;;5100418;28;20913;-81
2022/05/28 06:01:53;;;;;;;10.90;1.77;;;25.40;55.70;;;;;;5098775;28;20471;-83
2022/05/28 06:04:20;;;;;;;3.80;1.80;;;25.30;55.50;;;;;;5099026;28;20440;-86
2022/05/28 06:06:47;;;;;;;7.50;1.87;;;25.00;55.30;;;;;;5099211;28;20447;-85
2022/05/28 06:09:14;;;;;;;6.30;1.57;;;25.00;55.40;;;;;;5099458;28;20510;-82
2022/05/28 06:11:41;;;;;;;7.60;2.10;;;24.90;55.50;;;;;;5099299;28;20439;-83
2022/05/28 06:14:09;;;;;;;6.23;1.63;;;24.80;55.30;;;;;;5098997;28;20435;-82
2022/05/28 06:16:36;;;;;;;3.93;1.53;;;24.80;55.20;;;;;;5099791;28;20446;-83
2022/05/28 06:19:03;;;;;;;6.07;1.83;;;24.70;55.30;;;;;;5099839;28;20513;-78
2022/05/28 06:21:30;;;;;;;2.73;1.20;;;24.80;55.50;;;;;;5099796;28;20435;-79
2022/05/28 06:23:57;;;;;;;4.90;1.70;;;24.60;55.20;;;;;;5099496;28;20802;-79
2022/05/28 06:26:23;;;;;;;3.83;1.80;;;24.60;55.10;;;;;;5099683;28;20506;-82
2022/05/28 06:28:50;;;;;;;4.73;1.50;;;24.60;55.10;;;;;;5099482;28;20479;-79
2022/05/28 06:31:18;;;;;;;5.40;1.73;;;24.60;55.20;;;;;;5099679;28;20852;-79
2022/05/28 06:33:45;;;;;;;6.20;1.70;;;24.50;54.60;;;;;;5099458;28;20447;-79
2022/05/28 06:36:13;;;;;;;1.57;1.23;;;24.50;54.50;;;;;;5099708;28;20440;-79
2022/05/28 06:38:40;;;;;;;5.87;1.73;;;24.40;54.50;;;;;;5099681;28;20462;-79
2022/05/28 06:41:07;;;;;;;4.03;1.73;;;24.40;54.20;;;;;;5099877;28;20443;-79
2022/05/28 06:43:35;;;;;;;5.50;1.40;;;24.40;53.80;;;;;;5099462;28;20801;-78
2022/05/28 06:46:02;;;;;;;3.70;1.60;;;24.50;53.70;;;;;;5099479;28;20811;-79
2022/05/28 06:48:30;;;;;;;2.90;1.30;;;24.40;53.50;;;;;;5099099;28;20474;-78
2022/05/28 06:51:03;;;;;;;3.73;1.60;;;24.40;53.40;;;;;;5099556;28;20444;-79
2022/05/28 06:53:32;;;;;;;3.00;1.53;;;24.40;53.40;;;;;;5099591;28;20458;-79
2022/05/28 06:55:58;;;;;;;4.70;2.00;;;24.30;53.20;;;;;;5099862;28;20767;-78
2022/05/28 06:58:26;;;;;;;3.43;1.37;;;24.40;53.10;;;;;;5099533;28;20450;-79
2022/05/28 07:00:53;;;;;;;7.87;1.57;;;24.40;53.20;;;;;;5099403;28;20959;-79
2022/05/28 07:03:22;;;;;;;2.83;1.47;;;24.40;53.30;;;;;;5097037;28;20957;-77
2022/05/28 07:05:50;;;;;;;2.87;1.40;;;24.40;53.40;;;;;;5095656;28;20440;-81
2022/05/28 07:08:18;;;;;;;3.60;1.30;;;24.40;53.50;;;;;;5095298;28;20451;-84
2022/05/28 07:10:46;;;;;;;2.23;1.40;;;24.30;53.20;;;;;;5096376;28;20450;-81
2022/05/28 07:13:13;;;;;;;4.30;1.20;;;24.40;53.20;;;;;;5094209;28;20485;-81
2022/05/28 07:15:40;;;;;;;4.47;1.40;;;24.30;53.00;;;;;;5096457;28;20454;-88
2022/05/28 07:18:08;;;;;;;2.47;1.20;;;24.20;52.90;;;;;;5095971;28;20440;-79
2022/05/28 07:20:35;;;;;;;5.33;1.97;;;24.20;53.10;;;;;;5095886;28;20443;-79
2022/05/28 07:23:09;;;;;;;4.80;1.60;;;24.10;53.40;;;;;;5095918;28;20440;-79
2022/05/28 07:25:36;;;;;;;5.47;1.77;;;24.10;53.30;;;;;;5095906;28;20435;-79
2022/05/28 07:28:24;;;;;;;8.20;2.17;;;24.20;53.50;;;;;;5095635;28;20458;-79
2022/05/28 07:30:51;;;;;;;3.40;1.30;;;24.20;53.40;;;;;;5095231;28;20456;-80
2022/05/28 07:33:18;;;;;;;1.93;0.97;;;24.40;53.50;;;;;;5095682;28;20950;-82
2022/05/28 07:35:46;;;;;;;7.90;1.47;;;24.50;54.20;;;;;;5095815;28;20810;-80
2022/05/28 07:38:14;;;;;;;5.70;1.33;;;24.60;54.50;;;;;;5095482;28;21005;-82
2022/05/28 07:40:41;;;;;;;4.03;1.40;;;24.70;54.30;;;;;;5095359;28;20452;-83
2022/05/28 07:43:08;;;;;;;4.00;1.50;;;24.80;55.10;;;;;;5097450;28;20447;-85
2022/05/28 07:45:40;;;;;;;3.00;1.83;;;24.80;54.40;;;;;;5095565;28;20458;-81
2022/05/28 07:48:08;;;;;;;2.63;1.30;;;24.80;54.00;;;;;;5094827;28;20510;-81
2022/05/28 07:50:35;;;;;;;1.93;1.20;;;25.00;54.30;;;;;;5094985;28;20492;-84
2022/05/28 07:53:01;;;;;;;5.33;1.20;;;25.00;54.70;;;;;;5094359;28;20459;-81
2022/05/28 07:55:30;;;;;;;8.77;1.20;;;25.10;55.00;;;;;;5094786;28;20432;-81
2022/05/28 07:57:57;;;;;;;2.23;1.10;;;25.20;55.20;;;;;;5094869;28;20443;-81
2022/05/28 08:00:24;;;;;;;1.97;0.90;;;25.20;55.30;;;;;;5094789;28;20467;-81
2022/05/28 08:02:51;;;;;;;2.90;1.07;;;25.30;55.40;;;;;;5094282;28;20978;-81
2022/05/28 08:05:18;;;;;;;2.93;1.20;;;25.30;55.40;;;;;;5095376;28;20447;-81
2022/05/28 08:07:47;;;;;;;2.03;1.50;;;25.40;55.30;;;;;;5095071;28;20452;-81
2022/05/28 08:10:14;;;;;;;3.17;1.30;;;25.40;55.30;;;;;;5095513;28;20808;-81
2022/05/28 08:12:42;;;;;;;1.60;1.17;;;25.50;55.40;;;;;;5095208;28;20440;-82
2022/05/28 08:15:13;;;;;;;2.80;1.00;;;25.50;55.00;;;;;;5097337;28;20799;-88
2022/05/28 08:17:40;;;;;;;1.33;0.87;;;25.60;55.30;;;;;;5101475;28;20464;-86
2022/05/28 08:20:11;;;;;;;1.53;0.97;;;25.60;55.20;;;;;;5101565;28;20524;-88
2022/05/28 08:25:23;;;;;;;1.50;1.00;;;25.60;55.00;;;;;;5096753;28;20431;-90
2022/05/28 08:27:52;;;;;;;2.33;1.00;;;25.60;55.00;;;;;;5101941;28;20468;-90
2022/05/28 08:30:19;;;;;;;2.23;0.90;;;25.70;55.20;;;;;;5099350;28;20510;-83
2022/05/28 08:32:45;;;;;;;2.57;1.20;;;25.70;55.10;;;;;;5094181;28;20432;-81
2022/05/28 08:35:12;;;;;;;1.40;1.10;;;25.70;54.80;;;;;;5094873;28;20768;-83
2022/05/28 08:37:40;;;;;;;3.17;0.97;;;25.70;54.90;;;;;;5094074;28;20962;-83
2022/05/28 08:40:08;;;;;;;1.33;1.10;;;25.80;55.00;;;;;;5094142;28;20931;-83
2022/05/28 08:42:36;;;;;;;3.10;1.10;;;25.80;55.20;;;;;;5094128;28;20964;-84
2022/05/28 08:45:06;;;;;;;6.23;1.20;;;25.80;55.20;;;;;;5094508;28;20535;-84
2022/05/28 08:47:36;;;;;;;1.50;1.03;;;25.80;55.50;;;;;;5094748;28;20802;-83
2022/05/28 08:50:06;;;;;;;2.80;1.10;;;25.80;55.30;;;;;;5095574;28;20472;-85
2022/05/28 08:52:39;;;;;;;4.40;1.00;;;25.80;55.20;;;;;;5094384;28;20858;-81
2022/05/28 08:55:09;;;;;;;2.73;1.30;;;25.80;54.50;;;;;;5094287;28;20865;-82
2022/05/28 08:57:47;;;;;;;4.97;1.60;;;25.70;52.40;;;;;;5094341;28;20439;-83
2022/05/28 09:00:18;;;;;;;1.60;1.20;;;25.80;52.70;;;;;;5094502;28;20443;-83
2022/05/28 09:02:49;;;;;;;4.13;1.20;;;25.80;53.20;;;;;;5094180;28;20479;-88
2022/05/28 09:05:23;;;;;;;1.77;1.00;;;25.80;53.80;;;;;;5094661;28;20933;-83
2022/05/28 09:07:52;;;;;;;3.87;1.47;;;25.80;54.40;;;;;;5094239;28;20463;-84
2022/05/28 09:10:19;;;;;;;1.30;1.00;;;25.80;54.70;;;;;;5093572;28;20563;-82
2022/05/28 09:12:52;;;;;;;2.70;1.20;;;25.80;54.70;;;;;;5093763;28;20436;-84
2022/05/28 09:15:20;;;;;;;2.30;1.30;;;25.90;54.80;;;;;;5088817;28;20440;-84
2022/05/28 09:17:51;;;;;;;2.90;1.00;;;25.80;54.70;;;;;;5093741;28;20436;-83
2022/05/28 09:20:21;;;;;;;1.83;1.13;;;25.80;54.70;;;;;;5093466;28;20428;-85
2022/05/28 09:22:48;;;;;;;3.30;1.03;;;25.80;54.70;;;;;;5093712;28;20456;-85
2022/05/28 09:25:17;;;;;;;1.17;0.90;;;25.80;54.70;;;;;;5090864;28;20447;-88
2022/05/28 09:27:54;;;;;;;2.13;1.10;;;25.90;54.90;;;;;;5092926;28;20450;-84
2022/05/28 09:30:34;;;;;;;7.57;1.37;;;25.90;55.30;;;;;;5093569;28;20490;-83
2022/05/28 09:33:36;;;;;;;5.80;1.67;;;25.90;55.30;;;;;;5093674;28;20462;-81
2022/05/28 09:36:08;;;;;;;6.13;1.27;;;25.90;55.60;;;;;;5093103;28;20461;-81
2022/05/28 09:38:44;;;;;;;7.93;1.47;;;25.90;56.00;;;;;;5093017;28;20459;-83
2022/05/28 09:41:33;;;;;;;4.53;1.40;;;25.90;56.10;;;;;;5092561;28;20469;-81
2022/05/28 09:44:08;;;;;;;3.53;1.27;;;26.00;56.10;;;;;;5092650;28;20436;-87
2022/05/28 09:46:39;;;;;;;3.53;1.17;;;26.00;56.80;;;;;;5092806;28;20451;-81
2022/05/28 09:49:11;;;;;;;6.87;1.77;;;26.00;56.20;;;;;;5092020;28;20444;-81
2022/05/28 09:51:39;;;;;;;1.50;1.00;;;26.00;56.30;;;;;;5092085;28;20516;-81
2022/05/28 09:54:16;;;;;;;3.90;1.67;;;26.00;56.30;;;;;;5091859;28;20450;-81
2022/05/28 09:56:45;;;;;;;8.80;1.53;;;26.00;56.30;;;;;;5092659;28;20443;-82
2022/05/28 09:59:23;;;;;;;8.03;1.90;;;26.00;56.30;;;;;;5092717;28;20440;-81
2022/05/28 10:01:57;;;;;;;4.30;1.23;;;26.00;56.30;;;;;;5092431;28;20478;-81
2022/05/28 10:04:33;;;;;;;3.63;1.20;;;26.00;56.30;;;;;;5093310;28;20493;-81
2022/05/28 10:07:04;;;;;;;1.93;1.03;;;26.00;56.40;;;;;;5093114;28;20458;-81
2022/05/28 10:09:33;;;;;;;3.00;1.20;;;26.00;56.40;;;;;;5093529;28;20950;-81
2022/05/28 10:12:03;;;;;;;2.70;1.40;;;26.00;56.40;;;;;;5093070;28;20456;-81
2022/05/28 10:14:32;;;;;;;3.93;1.00;;;26.00;56.20;;;;;;5093145;28;20440;-82
2022/05/28 10:17:03;;;;;;;2.23;1.33;;;26.00;55.60;;;;;;5092171;28;20456;-81
2022/05/28 10:19:34;;;;;;;2.17;1.03;;;26.00;56.10;;;;;;5093145;28;20432;-82
2022/05/28 10:22:04;;;;;;;1.80;1.00;;;26.00;56.30;;;;;;5093032;28;20436;-82
2022/05/28 10:24:40;;;;;;;5.10;1.60;;;26.00;56.20;;;;;;5093100;28;20440;-81
2022/05/28 10:27:21;;;;;;;4.17;1.23;;;26.10;56.30;;;;;;5093208;28;20443;-87
2022/05/28 10:29:52;;;;;;;3.33;1.30;;;26.00;55.80;;;;;;5093264;28;20479;-86
2022/05/28 10:32:28;;;;;;;2.87;1.07;;;26.00;55.30;;;;;;5092908;28;20444;-86
2022/05/28 10:35:01;;;;;;;3.67;1.20;;;26.00;55.10;;;;;;5092980;28;21180;-85
2022/05/28 10:37:27;;;;;;;1.73;1.13;;;26.00;55.10;;;;;;5092435;28;20508;-85
2022/05/28 10:40:09;;;;;;;1.77;0.90;;;26.00;55.00;;;;;;5095711;28;20923;-84
2022/05/28 10:42:37;;;;;;;1.77;1.40;;;26.00;54.60;;;;;;5096702;28;20953;-85
2022/05/28 10:45:06;;;;;;;2.60;0.97;;;26.00;54.80;;;;;;5096969;28;20469;-84
2022/05/28 10:47:49;;;;;;;2.70;1.13;;;26.00;54.90;;;;;;5096573;28;20435;-85
2022/05/28 10:50:24;;;;;;;1.83;1.27;;;26.00;54.70;;;;;;5096647;28;20502;-85
2022/05/28 10:53:01;;;;;;;2.77;1.27;;;25.90;54.50;;;;;;5096684;28;20436;-85
2022/05/28 10:55:37;;;;;;;2.30;1.10;;;25.90;54.70;;;;;;5096519;28;20443;-84
2022/05/28 10:58:29;;;;;;;1.90;1.00;;;26.00;54.50;;;;;;5096994;28;20446;-85
2022/05/28 11:01:02;;;;;;;1.40;0.80;;;26.00;54.60;;;;;;5096465;28;20444;-85
2022/05/28 11:04:08;;;;;;;2.80;1.00;;;25.90;54.80;;;;;;5096358;28;20447;-84
2022/05/28 11:07:00;;;;;;;2.60;1.37;;;26.00;54.80;;;;;;5080713;28;20463;-90
2022/05/28 11:09:38;;;;;;;2.33;1.10;;;25.90;54.90;;;;;;5084062;28;20538;-83
2022/05/28 11:12:18;;;;;;;3.10;1.23;;;25.90;54.90;;;;;;5095918;28;20466;-84
2022/05/28 11:15:23;;;;;;;3.00;1.07;;;25.90;55.00;;;;;;5094768;28;20444;-90
2022/05/28 11:18:12;;;;;;;6.83;1.40;;;25.90;55.00;;;;;;5080198;28;20448;-84
2022/05/28 11:20:46;;;;;;;1.50;1.20;;;25.90;55.00;;;;;;5095757;28;20448;-84
2022/05/28 11:26:24;;;;;;;1.73;1.20;;;25.90;55.10;;;;;;5104364;27;1404630;-83
2022/05/28 11:29:11;;;;;;;1.87;1.10;;;25.90;55.00;;;;;;5131946;28;20193;-83
2022/05/28 11:31:45;;;;;;;1.20;0.90;;;25.90;55.00;;;;;;5131634;28;20461;-83
2022/05/28 11:34:17;;;;;;;1.87;1.00;;;25.90;55.00;;;;;;5131664;28;20445;-83
2022/05/28 11:36:48;;;;;;;1.40;1.10;;;25.90;55.10;;;;;;5125807;28;20470;-83
2022/05/28 11:39:23;;;;;;;2.53;1.20;;;25.90;55.10;;;;;;5093317;28;20443;-83
2022/05/28 11:41:56;;;;;;;1.77;1.10;;;25.90;55.00;;;;;;5111049;28;20521;-83
2022/05/28 11:44:29;;;;;;;1.93;0.90;;;26.00;55.00;;;;;;5111210;28;20497;-84
2022/05/28 11:47:00;;;;;;;2.60;1.10;;;25.90;55.00;;;;;;5111201;28;20449;-83
2022/05/28 11:52:27;;;;;;;1.27;1.17;;;25.90;54.90;;;;;;5111102;28;20406;-83
2022/05/28 11:54:57;;;;;;;1.63;0.93;;;25.90;54.90;;;;;;5111158;28;20458;-84
2022/05/28 11:57:30;;;;;;;2.57;1.20;;;25.90;54.90;;;;;;5111020;28;20463;-84
2022/05/28 11:59:58;;;;;;;1.73;1.17;;;25.90;54.70;;;;;;5111164;28;20428;-83
2022/05/28 12:02:29;;;;;;;1.27;0.80;;;25.90;54.80;;;;;;5092532;28;20447;-83
2022/05/28 12:04:56;;;;;;;1.70;1.07;;;25.90;54.60;;;;;;5110968;28;20471;-83
2022/05/28 12:07:34;;;;;;;1.50;1.00;;;25.90;54.70;;;;;;5110760;28;20465;-84
2022/05/28 12:10:04;;;;;;;1.67;1.07;;;25.90;54.80;;;;;;5110802;28;20457;-83
2022/05/28 12:12:36;;;;;;;1.40;0.90;;;25.90;54.80;;;;;;5110598;28;20438;-84
2022/05/28 12:15:21;;;;;;;1.20;0.90;;;25.90;54.80;;;;;;5110503;28;20446;-83
2022/05/28 12:17:58;;;;;;;1.50;0.90;;;25.90;54.60;;;;;;5111240;28;20480;-83
2022/05/28 12:20:30;;;;;;;2.10;0.87;;;26.00;54.60;;;;;;5110716;28;20442;-83
2022/05/28 12:23:00;;;;;;;1.20;0.80;;;26.00;54.60;;;;;;5110271;28;20492;-83
2022/05/28 12:25:34;;;;;;;1.77;1.00;;;25.90;54.60;;;;;;5110128;28;20536;-82
2022/05/28 12:28:11;;;;;;;2.50;0.97;;;26.00;54.70;;;;;;5110677;28;20867;-83
2022/05/28 12:30:53;;;;;;;1.10;0.80;;;26.00;54.60;;;;;;5110019;28;20957;-82
2022/05/28 12:33:26;;;;;;;1.77;1.10;;;26.00;54.60;;;;;;5110318;28;20478;-82
2022/05/28 12:36:01;;;;;;;3.97;1.00;;;26.00;54.70;;;;;;5105833;28;20444;-82
2022/05/28 12:38:47;;;;;;;1.53;0.90;;;25.90;54.70;;;;;;5096776;28;20439;-82
2022/05/28 12:41:20;;;;;;;1.30;1.10;;;25.90;54.60;;;;;;5096333;28;20445;-83
2022/05/28 12:43:56;;;;;;;3.20;1.13;;;25.90;54.50;;;;;;5096484;28;20432;-83
2022/05/28 12:46:40;;;;;;;1.50;1.00;;;26.00;54.50;;;;;;5096258;28;20479;-86
2022/05/28 12:49:10;;;;;;;1.40;1.10;;;25.90;54.30;;;;;;5096463;28;20783;-83
2022/05/28 12:51:49;;;;;;;1.83;1.00;;;26.00;54.40;;;;;;5095233;28;20954;-82
2022/05/28 12:54:25;;;;;;;1.43;1.00;;;26.00;54.40;;;;;;5077367;28;20443;-83
2022/05/28 12:56:52;;;;;;;1.70;1.10;;;26.00;54.20;;;;;;5101117;28;20930;-83
2022/05/28 12:59:32;;;;;;;1.37;1.10;;;26.00;54.40;;;;;;5095751;28;20436;-82
2022/05/28 13:02:04;;;;;;;1.40;0.80;;;26.00;54.40;;;;;;5095718;28;20440;-82
2022/05/28 13:04:35;;;;;;;2.70;1.00;;;26.00;54.40;;;;;;5095567;28;20451;-82
2022/05/28 13:07:04;;;;;;;2.30;1.03;;;26.00;54.20;;;;;;5095835;28;20974;-81
2022/05/28 13:09:32;;;;;;;2.67;1.03;;;25.90;54.00;;;;;;5096015;28;20440;-85